sensor_id;sensor_type;location;lat;lon;timestamp;P1;durP1;ratioP1;P2;durP2;ratioP2
27293;SDS011;14785;52.556;13.430;2023-05-25T00:01:15;11.20;;;4.63;;
27293;SDS011;14785;52.556;13.430;2023-05-25T00:03:41;9.37;;;3.60;;
27293;SDS011;14785;52.556;13.430;2023-05-25T00:06:07;5.70;;;3.03;;
27293;SDS011;14785;52.556;13.430;2023-05-25T00:08:34;6.07;;;3.03;;
27293;SDS011;14785;52.556;13.430;2023-05-25T00:10:59;6.63;;;3.57;;
27293;SDS011;14785;52.556;13.430;2023-05-25T00:13:26;5.43;;;3.15;;
27293;SDS011;14785;52.556;13.430;2023-05-25T00:15:52;7.22;;;2.75;;
27293;SDS011;14785;52.556;13.430;2023-05-25T00:18:17;7.50;;;3.90;;
27293;SDS011;14785;52.556;13.430;2023-05-25T00:20:43;9.83;;;3.53;;
27293;SDS011;14785;52.556;13.430;2023-05-25T00:23:09;12.13;;;3.17;;
27293;SDS011;14785;52.556;13.430;2023-05-25T00:25:34;4.35;;;2.85;;
27293;SDS011;14785;52.556;13.430;2023-05-25T00:28:00;7.10;;;2.60;;
27293;SDS011;14785;52.556;13.430;2023-05-25T00:30:28;12.43;;;3.55;;
27293;SDS011;14785;52.556;13.430;2023-05-25T00:32:54;13.07;;;2.72;;
27293;SDS011;14785;52.556;13.430;2023-05-25T00:35:19;8.27;;;4.27;;
27293;SDS011;14785;52.556;13.430;2023-05-25T00:37:45;8.63;;;3.58;;
27293;SDS011;14785;52.556;13.430;2023-05-25T00:40:13;7.37;;;3.23;;
27293;SDS011;14785;52.556;13.430;2023-05-25T00:42:40;13.73;;;3.00;;
27293;SDS011;14785;52.556;13.430;2023-05-25T00:45:06;10.48;;;3.55;;
27293;SDS011;14785;52.556;13.430;2023-05-25T00:47:32;6.83;;;2.50;;
27293;SDS011;14785;52.556;13.430;2023-05-25T00:49:58;14.90;;;5.03;;
27293;SDS011;14785;52.556;13.430;2023-05-25T00:52:25;5.95;;;3.15;;
27293;SDS011;14785;52.556;13.430;2023-05-25T00:54:53;8.80;;;3.13;;
27293;SDS011;14785;52.556;13.430;2023-05-25T00:57:19;10.68;;;2.53;;
27293;SDS011;14785;52.556;13.430;2023-05-25T00:59:48;9.18;;;3.47;;
27293;SDS011;14785;52.556;13.430;2023-05-25T01:02:16;7.65;;;2.97;;
27293;SDS011;14785;52.556;13.430;2023-05-25T01:04:44;13.48;;;2.40;;
27293;SDS011;14785;52.556;13.430;2023-05-25T01:07:23;12.63;;;3.20;;
27293;SDS011;14785;52.556;13.430;2023-05-25T01:09:56;8.15;;;2.92;;
27293;SDS011;14785;52.556;13.430;2023-05-25T01:12:45;8.13;;;3.33;;
27293;SDS011;14785;52.556;13.430;2023-05-25T01:15:10;5.75;;;2.83;;
27293;SDS011;14785;52.556;13.430;2023-05-25T01:17:36;5.10;;;2.33;;
27293;SDS011;14785;52.556;13.430;2023-05-25T01:20:02;13.45;;;3.97;;
27293;SDS011;14785;52.556;13.430;2023-05-25T01:22:35;5.47;;;2.92;;
27293;SDS011;14785;52.556;13.430;2023-05-25T01:25:08;4.57;;;3.15;;
27293;SDS011;14785;52.556;13.430;2023-05-25T01:30:13;15.85;;;3.10;;
27293;SDS011;14785;52.556;13.430;2023-05-25T01:32:41;8.32;;;3.22;;
27293;SDS011;14785;52.556;13.430;2023-05-25T01:35:07;5.45;;;2.70;;
27293;SDS011;14785;52.556;13.430;2023-05-25T01:40:05;8.40;;;3.55;;
27293;SDS011;14785;52.556;13.430;2023-05-25T01:42:31;8.82;;;3.22;;
27293;SDS011;14785;52.556;13.430;2023-05-25T01:44:57;4.23;;;3.20;;
27293;SDS011;14785;52.556;13.430;2023-05-25T01:47:28;9.48;;;2.75;;
27293;SDS011;14785;52.556;13.430;2023-05-25T01:50:23;8.27;;;3.03;;
27293;SDS011;14785;52.556;13.430;2023-05-25T01:53:17;5.60;;;2.53;;
27293;SDS011;14785;52.556;13.430;2023-05-25T01:55:45;9.55;;;4.07;;
27293;SDS011;14785;52.556;13.430;2023-05-25T01:58:17;6.72;;;3.03;;
27293;SDS011;14785;52.556;13.430;2023-05-25T02:00:45;6.28;;;2.00;;
27293;SDS011;14785;52.556;13.430;2023-05-25T02:03:13;6.10;;;2.92;;
27293;SDS011;14785;52.556;13.430;2023-05-25T02:05:42;17.17;;;2.80;;
27293;SDS011;14785;52.556;13.430;2023-05-25T02:08:08;11.60;;;3.40;;
27293;SDS011;14785;52.556;13.430;2023-05-25T02:10:33;8.13;;;2.43;;
27293;SDS011;14785;52.556;13.430;2023-05-25T02:12:59;9.07;;;3.03;;
27293;SDS011;14785;52.556;13.430;2023-05-25T02:15:26;10.77;;;3.73;;
27293;SDS011;14785;52.556;13.430;2023-05-25T02:17:55;11.90;;;3.53;;
27293;SDS011;14785;52.556;13.430;2023-05-25T02:22:47;7.85;;;3.42;;
27293;SDS011;14785;52.556;13.430;2023-05-25T02:25:12;9.00;;;2.97;;
27293;SDS011;14785;52.556;13.430;2023-05-25T02:27:37;8.53;;;3.20;;
27293;SDS011;14785;52.556;13.430;2023-05-25T02:30:03;9.57;;;3.20;;
27293;SDS011;14785;52.556;13.430;2023-05-25T02:32:29;7.40;;;3.08;;
27293;SDS011;14785;52.556;13.430;2023-05-25T02:34:55;11.38;;;4.03;;
27293;SDS011;14785;52.556;13.430;2023-05-25T02:37:20;14.90;;;3.77;;
27293;SDS011;14785;52.556;13.430;2023-05-25T02:39:46;7.27;;;3.23;;
27293;SDS011;14785;52.556;13.430;2023-05-25T02:42:12;6.90;;;2.63;;
27293;SDS011;14785;52.556;13.430;2023-05-25T02:44:37;5.70;;;3.10;;
27293;SDS011;14785;52.556;13.430;2023-05-25T02:47:02;7.00;;;2.73;;
27293;SDS011;14785;52.556;13.430;2023-05-25T02:49:28;12.87;;;4.07;;
27293;SDS011;14785;52.556;13.430;2023-05-25T02:51:54;7.53;;;2.77;;
27293;SDS011;14785;52.556;13.430;2023-05-25T02:54:20;4.95;;;3.17;;
27293;SDS011;14785;52.556;13.430;2023-05-25T02:56:45;15.67;;;4.47;;
27293;SDS011;14785;52.556;13.430;2023-05-25T02:59:11;5.97;;;3.13;;
27293;SDS011;14785;52.556;13.430;2023-05-25T03:04:04;8.77;;;4.13;;
27293;SDS011;14785;52.556;13.430;2023-05-25T03:06:30;6.77;;;3.87;;
27293;SDS011;14785;52.556;13.430;2023-05-25T03:08:55;12.13;;;4.90;;
27293;SDS011;14785;52.556;13.430;2023-05-25T03:11:21;12.67;;;4.53;;
27293;SDS011;14785;52.556;13.430;2023-05-25T03:13:47;8.85;;;4.05;;
27293;SDS011;14785;52.556;13.430;2023-05-25T03:16:12;10.37;;;4.33;;
27293;SDS011;14785;52.556;13.430;2023-05-25T03:18:37;6.00;;;3.20;;
27293;SDS011;14785;52.556;13.430;2023-05-25T03:21:03;10.70;;;4.33;;
27293;SDS011;14785;52.556;13.430;2023-05-25T03:23:28;13.80;;;4.10;;
27293;SDS011;14785;52.556;13.430;2023-05-25T03:25:54;8.50;;;4.00;;
27293;SDS011;14785;52.556;13.430;2023-05-25T03:28:19;7.27;;;3.87;;
27293;SDS011;14785;52.556;13.430;2023-05-25T03:30:45;8.37;;;4.53;;
27293;SDS011;14785;52.556;13.430;2023-05-25T03:33:10;16.20;;;5.00;;
27293;SDS011;14785;52.556;13.430;2023-05-25T03:35:37;10.70;;;4.75;;
27293;SDS011;14785;52.556;13.430;2023-05-25T03:38:03;11.10;;;4.47;;
27293;SDS011;14785;52.556;13.430;2023-05-25T03:40:28;9.70;;;4.47;;
27293;SDS011;14785;52.556;13.430;2023-05-25T03:42:54;14.47;;;5.37;;
27293;SDS011;14785;52.556;13.430;2023-05-25T03:45:19;6.87;;;4.10;;
27293;SDS011;14785;52.556;13.430;2023-05-25T03:47:44;15.40;;;5.00;;
27293;SDS011;14785;52.556;13.430;2023-05-25T03:50:10;12.63;;;5.40;;
27293;SDS011;14785;52.556;13.430;2023-05-25T03:52:36;10.23;;;3.83;;
27293;SDS011;14785;52.556;13.430;2023-05-25T03:55:01;11.90;;;4.37;;
27293;SDS011;14785;52.556;13.430;2023-05-25T03:57:28;16.25;;;5.22;;
27293;SDS011;14785;52.556;13.430;2023-05-25T03:59:53;12.03;;;4.67;;
27293;SDS011;14785;52.556;13.430;2023-05-25T04:02:19;8.80;;;5.07;;
27293;SDS011;14785;52.556;13.430;2023-05-25T04:04:44;12.57;;;5.90;;
27293;SDS011;14785;52.556;13.430;2023-05-25T04:07:11;14.87;;;5.43;;
27293;SDS011;14785;52.556;13.430;2023-05-25T04:09:36;18.17;;;5.65;;
27293;SDS011;14785;52.556;13.430;2023-05-25T04:12:02;16.37;;;5.33;;
27293;SDS011;14785;52.556;13.430;2023-05-25T04:14:27;9.13;;;5.00;;
27293;SDS011;14785;52.556;13.430;2023-05-25T04:16:53;12.13;;;5.03;;
27293;SDS011;14785;52.556;13.430;2023-05-25T04:19:18;18.17;;;6.10;;
27293;SDS011;14785;52.556;13.430;2023-05-25T04:21:44;19.10;;;4.30;;
27293;SDS011;14785;52.556;13.430;2023-05-25T04:24:09;14.50;;;4.53;;
27293;SDS011;14785;52.556;13.430;2023-05-25T04:26:37;12.98;;;4.22;;
27293;SDS011;14785;52.556;13.430;2023-05-25T04:29:05;13.70;;;5.20;;
27293;SDS011;14785;52.556;13.430;2023-05-25T04:31:32;12.95;;;6.10;;
27293;SDS011;14785;52.556;13.430;2023-05-25T04:33:57;13.60;;;6.13;;
27293;SDS011;14785;52.556;13.430;2023-05-25T04:36:23;11.00;;;5.10;;
27293;SDS011;14785;52.556;13.430;2023-05-25T04:38:48;16.42;;;7.05;;
27293;SDS011;14785;52.556;13.430;2023-05-25T04:41:16;14.35;;;5.47;;
27293;SDS011;14785;52.556;13.430;2023-05-25T04:43:42;20.30;;;5.72;;
27293;SDS011;14785;52.556;13.430;2023-05-25T04:46:09;17.83;;;6.57;;
27293;SDS011;14785;52.556;13.430;2023-05-25T04:48:36;19.13;;;6.57;;
27293;SDS011;14785;52.556;13.430;2023-05-25T04:51:03;19.70;;;6.65;;
27293;SDS011;14785;52.556;13.430;2023-05-25T04:53:30;13.45;;;5.68;;
27293;SDS011;14785;52.556;13.430;2023-05-25T04:55:56;12.98;;;6.50;;
27293;SDS011;14785;52.556;13.430;2023-05-25T04:58:22;12.55;;;6.43;;
27293;SDS011;14785;52.556;13.430;2023-05-25T05:00:49;10.73;;;4.97;;
27293;SDS011;14785;52.556;13.430;2023-05-25T05:03:14;12.50;;;6.10;;
27293;SDS011;14785;52.556;13.430;2023-05-25T05:05:40;21.60;;;5.83;;
27293;SDS011;14785;52.556;13.430;2023-05-25T05:08:07;12.88;;;5.70;;
27293;SDS011;14785;52.556;13.430;2023-05-25T05:10:33;22.60;;;7.83;;
27293;SDS011;14785;52.556;13.430;2023-05-25T05:12:58;15.83;;;5.60;;
27293;SDS011;14785;52.556;13.430;2023-05-25T05:15:25;15.67;;;6.20;;
27293;SDS011;14785;52.556;13.430;2023-05-25T05:17:50;18.33;;;5.93;;
27293;SDS011;14785;52.556;13.430;2023-05-25T05:20:16;22.07;;;6.77;;
27293;SDS011;14785;52.556;13.430;2023-05-25T05:22:41;23.47;;;5.90;;
27293;SDS011;14785;52.556;13.430;2023-05-25T05:25:07;16.23;;;5.65;;
27293;SDS011;14785;52.556;13.430;2023-05-25T05:27:33;16.02;;;4.95;;
27293;SDS011;14785;52.556;13.430;2023-05-25T05:29:58;18.27;;;5.57;;
27293;SDS011;14785;52.556;13.430;2023-05-25T05:32:25;16.25;;;5.28;;
27293;SDS011;14785;52.556;13.430;2023-05-25T05:34:51;14.43;;;5.80;;
27293;SDS011;14785;52.556;13.430;2023-05-25T05:37:16;18.97;;;5.50;;
27293;SDS011;14785;52.556;13.430;2023-05-25T05:39:41;14.63;;;5.03;;
27293;SDS011;14785;52.556;13.430;2023-05-25T05:42:07;11.93;;;5.97;;
27293;SDS011;14785;52.556;13.430;2023-05-25T05:44:33;17.20;;;6.10;;
27293;SDS011;14785;52.556;13.430;2023-05-25T05:46:59;15.85;;;5.55;;
27293;SDS011;14785;52.556;13.430;2023-05-25T05:49:25;23.17;;;5.90;;
27293;SDS011;14785;52.556;13.430;2023-05-25T05:51:51;15.57;;;5.72;;
27293;SDS011;14785;52.556;13.430;2023-05-25T05:54:17;17.73;;;5.47;;
27293;SDS011;14785;52.556;13.430;2023-05-25T05:56:42;15.43;;;5.80;;
27293;SDS011;14785;52.556;13.430;2023-05-25T05:59:09;10.07;;;4.73;;
27293;SDS011;14785;52.556;13.430;2023-05-25T06:01:35;17.38;;;5.15;;
27293;SDS011;14785;52.556;13.430;2023-05-25T06:04:01;16.83;;;6.60;;
27293;SDS011;14785;52.556;13.430;2023-05-25T06:06:26;15.87;;;6.30;;
27293;SDS011;14785;52.556;13.430;2023-05-25T06:08:52;16.40;;;5.88;;
27293;SDS011;14785;52.556;13.430;2023-05-25T06:11:18;17.83;;;5.70;;
27293;SDS011;14785;52.556;13.430;2023-05-25T06:13:44;15.47;;;5.23;;
27293;SDS011;14785;52.556;13.430;2023-05-25T06:16:09;14.80;;;5.20;;
27293;SDS011;14785;52.556;13.430;2023-05-25T06:18:36;10.40;;;4.55;;
27293;SDS011;14785;52.556;13.430;2023-05-25T06:21:01;11.20;;;5.00;;
27293;SDS011;14785;52.556;13.430;2023-05-25T06:23:27;20.03;;;6.50;;
27293;SDS011;14785;52.556;13.430;2023-05-25T06:25:52;19.50;;;5.53;;
27293;SDS011;14785;52.556;13.430;2023-05-25T06:28:19;20.88;;;6.40;;
27293;SDS011;14785;52.556;13.430;2023-05-25T06:30:44;8.80;;;4.17;;
27293;SDS011;14785;52.556;13.430;2023-05-25T06:33:10;15.77;;;4.90;;
27293;SDS011;14785;52.556;13.430;2023-05-25T06:35:36;17.80;;;4.73;;
27293;SDS011;14785;52.556;13.430;2023-05-25T06:38:03;11.70;;;4.57;;
27293;SDS011;14785;52.556;13.430;2023-05-25T06:40:28;14.63;;;4.57;;
27293;SDS011;14785;52.556;13.430;2023-05-25T06:42:54;11.23;;;3.73;;
27293;SDS011;14785;52.556;13.430;2023-05-25T06:45:20;15.33;;;4.63;;
27293;SDS011;14785;52.556;13.430;2023-05-25T06:47:45;16.67;;;4.53;;
27293;SDS011;14785;52.556;13.430;2023-05-25T06:50:11;10.23;;;3.83;;
27293;SDS011;14785;52.556;13.430;2023-05-25T06:52:36;20.80;;;7.03;;
27293;SDS011;14785;52.556;13.430;2023-05-25T06:55:02;14.57;;;4.27;;
27293;SDS011;14785;52.556;13.430;2023-05-25T06:57:28;13.05;;;3.05;;
27293;SDS011;14785;52.556;13.430;2023-05-25T06:59:53;10.20;;;3.80;;
27293;SDS011;14785;52.556;13.430;2023-05-25T07:02:19;13.73;;;3.63;;
27293;SDS011;14785;52.556;13.430;2023-05-25T07:07:10;26.67;;;6.88;;
27293;SDS011;14785;52.556;13.430;2023-05-25T07:09:38;12.65;;;3.78;;
27293;SDS011;14785;52.556;13.430;2023-05-25T07:12:04;9.13;;;2.95;;
27293;SDS011;14785;52.556;13.430;2023-05-25T07:14:32;11.90;;;4.18;;
27293;SDS011;14785;52.556;13.430;2023-05-25T07:16:58;9.38;;;3.33;;
27293;SDS011;14785;52.556;13.430;2023-05-25T07:19:24;11.43;;;4.07;;
27293;SDS011;14785;52.556;13.430;2023-05-25T07:21:49;5.85;;;2.22;;
27293;SDS011;14785;52.556;13.430;2023-05-25T07:24:15;6.47;;;3.20;;
27293;SDS011;14785;52.556;13.430;2023-05-25T07:26:42;9.95;;;2.90;;
27293;SDS011;14785;52.556;13.430;2023-05-25T07:29:08;11.00;;;2.35;;
27293;SDS011;14785;52.556;13.430;2023-05-25T07:31:34;16.63;;;2.63;;
27293;SDS011;14785;52.556;13.430;2023-05-25T07:34:00;9.90;;;3.53;;
27293;SDS011;14785;52.556;13.430;2023-05-25T07:36:26;12.50;;;3.58;;
27293;SDS011;14785;52.556;13.430;2023-05-25T07:38:51;11.33;;;3.30;;
27293;SDS011;14785;52.556;13.430;2023-05-25T07:41:17;7.40;;;2.10;;
27293;SDS011;14785;52.556;13.430;2023-05-25T07:43:42;8.63;;;3.03;;
27293;SDS011;14785;52.556;13.430;2023-05-25T07:46:08;6.13;;;1.80;;
27293;SDS011;14785;52.556;13.430;2023-05-25T07:48:33;7.57;;;2.17;;
27293;SDS011;14785;52.556;13.430;2023-05-25T07:50:58;5.97;;;2.70;;
27293;SDS011;14785;52.556;13.430;2023-05-25T07:53:24;7.23;;;2.73;;
27293;SDS011;14785;52.556;13.430;2023-05-25T07:55:50;10.83;;;2.50;;
27293;SDS011;14785;52.556;13.430;2023-05-25T07:58:15;9.93;;;2.63;;
27293;SDS011;14785;52.556;13.430;2023-05-25T08:00:40;9.30;;;2.57;;
27293;SDS011;14785;52.556;13.430;2023-05-25T08:03:07;8.93;;;2.28;;
27293;SDS011;14785;52.556;13.430;2023-05-25T08:05:33;9.10;;;2.30;;
27293;SDS011;14785;52.556;13.430;2023-05-25T08:07:58;6.20;;;2.37;;
27293;SDS011;14785;52.556;13.430;2023-05-25T08:10:24;14.10;;;2.33;;
27293;SDS011;14785;52.556;13.430;2023-05-25T08:12:55;8.90;;;3.53;;
27293;SDS011;14785;52.556;13.430;2023-05-25T08:15:20;9.43;;;1.90;;
27293;SDS011;14785;52.556;13.430;2023-05-25T08:17:46;6.63;;;2.60;;
27293;SDS011;14785;52.556;13.430;2023-05-25T08:20:15;9.48;;;2.72;;
27293;SDS011;14785;52.556;13.430;2023-05-25T08:25:07;7.10;;;1.92;;
27293;SDS011;14785;52.556;13.430;2023-05-25T08:27:33;8.48;;;3.20;;
27293;SDS011;14785;52.556;13.430;2023-05-25T08:29:59;10.38;;;1.88;;
27293;SDS011;14785;52.556;13.430;2023-05-25T08:32:25;12.00;;;2.33;;
27293;SDS011;14785;52.556;13.430;2023-05-25T08:34:50;5.77;;;3.10;;
27293;SDS011;14785;52.556;13.430;2023-05-25T08:37:15;12.27;;;3.23;;
27293;SDS011;14785;52.556;13.430;2023-05-25T08:39:41;8.02;;;2.00;;
27293;SDS011;14785;52.556;13.430;2023-05-25T08:42:08;5.82;;;1.73;;
27293;SDS011;14785;52.556;13.430;2023-05-25T08:44:37;3.03;;;1.80;;
27293;SDS011;14785;52.556;13.430;2023-05-25T08:47:04;4.65;;;1.75;;
27293;SDS011;14785;52.556;13.430;2023-05-25T08:49:33;10.90;;;3.17;;
27293;SDS011;14785;52.556;13.430;2023-05-25T08:52:02;8.80;;;2.42;;
27293;SDS011;14785;52.556;13.430;2023-05-25T08:57:11;11.38;;;2.25;;
27293;SDS011;14785;52.556;13.430;2023-05-25T09:05:17;11.13;;;2.73;;
27293;SDS011;14785;52.556;13.430;2023-05-25T09:07:43;4.90;;;1.40;;
27293;SDS011;14785;52.556;13.430;2023-05-25T09:10:10;13.57;;;2.13;;
27293;SDS011;14785;52.556;13.430;2023-05-25T09:15:02;6.97;;;2.55;;
27293;SDS011;14785;52.556;13.430;2023-05-25T09:17:28;6.60;;;1.88;;
27293;SDS011;14785;52.556;13.430;2023-05-25T09:19:54;7.30;;;2.50;;
27293;SDS011;14785;52.556;13.430;2023-05-25T09:22:20;8.80;;;2.55;;
27293;SDS011;14785;52.556;13.430;2023-05-25T09:24:45;5.47;;;2.20;;
27293;SDS011;14785;52.556;13.430;2023-05-25T09:27:12;7.20;;;2.25;;
27293;SDS011;14785;52.556;13.430;2023-05-25T09:29:41;8.00;;;2.65;;
27293;SDS011;14785;52.556;13.430;2023-05-25T09:32:07;7.60;;;2.80;;
27293;SDS011;14785;52.556;13.430;2023-05-25T09:34:33;5.72;;;2.10;;
27293;SDS011;14785;52.556;13.430;2023-05-25T09:36:59;8.07;;;3.53;;
27293;SDS011;14785;52.556;13.430;2023-05-25T09:39:27;9.90;;;2.22;;
27293;SDS011;14785;52.556;13.430;2023-05-25T09:41:52;4.33;;;2.23;;
27293;SDS011;14785;52.556;13.430;2023-05-25T09:44:18;9.43;;;3.30;;
27293;SDS011;14785;52.556;13.430;2023-05-25T09:46:43;3.93;;;1.90;;
27293;SDS011;14785;52.556;13.430;2023-05-25T09:49:09;5.57;;;2.88;;
27293;SDS011;14785;52.556;13.430;2023-05-25T09:51:35;6.07;;;2.35;;
27293;SDS011;14785;52.556;13.430;2023-05-25T09:54:01;5.37;;;1.80;;
27293;SDS011;14785;52.556;13.430;2023-05-25T09:56:28;12.88;;;2.58;;
27293;SDS011;14785;52.556;13.430;2023-05-25T09:58:55;12.10;;;2.65;;
27293;SDS011;14785;52.556;13.430;2023-05-25T10:01:21;8.90;;;2.47;;
27293;SDS011;14785;52.556;13.430;2023-05-25T10:03:48;11.80;;;2.75;;
27293;SDS011;14785;52.556;13.430;2023-05-25T10:06:15;7.80;;;1.92;;
27293;SDS011;14785;52.556;13.430;2023-05-25T10:08:42;12.80;;;3.00;;
27293;SDS011;14785;52.556;13.430;2023-05-25T10:11:08;4.57;;;2.40;;
27293;SDS011;14785;52.556;13.430;2023-05-25T10:13:36;8.73;;;1.88;;
27293;SDS011;14785;52.556;13.430;2023-05-25T10:16:02;7.82;;;2.75;;
27293;SDS011;14785;52.556;13.430;2023-05-25T10:18:29;5.30;;;2.13;;
27293;SDS011;14785;52.556;13.430;2023-05-25T10:21:00;17.48;;;3.80;;
27293;SDS011;14785;52.556;13.430;2023-05-25T10:23:38;12.70;;;2.67;;
27293;SDS011;14785;52.556;13.430;2023-05-25T10:26:08;8.07;;;2.35;;
27293;SDS011;14785;52.556;13.430;2023-05-25T10:28:38;6.40;;;3.33;;
27293;SDS011;14785;52.556;13.430;2023-05-25T10:31:03;8.98;;;2.40;;
27293;SDS011;14785;52.556;13.430;2023-05-25T10:33:31;7.65;;;2.83;;
27293;SDS011;14785;52.556;13.430;2023-05-25T10:35:57;8.15;;;2.35;;
27293;SDS011;14785;52.556;13.430;2023-05-25T10:38:24;6.18;;;2.35;;
27293;SDS011;14785;52.556;13.430;2023-05-25T10:40:50;8.43;;;2.65;;
27293;SDS011;14785;52.556;13.430;2023-05-25T10:43:18;12.45;;;2.90;;
27293;SDS011;14785;52.556;13.430;2023-05-25T10:45:45;3.28;;;1.80;;
27293;SDS011;14785;52.556;13.430;2023-05-25T10:48:12;4.82;;;1.90;;
27293;SDS011;14785;52.556;13.430;2023-05-25T10:50:38;11.15;;;2.42;;
27293;SDS011;14785;52.556;13.430;2023-05-25T10:53:13;5.40;;;2.40;;
27293;SDS011;14785;52.556;13.430;2023-05-25T10:55:40;9.23;;;2.92;;
27293;SDS011;14785;52.556;13.430;2023-05-25T10:58:11;5.93;;;2.72;;
27293;SDS011;14785;52.556;13.430;2023-05-25T11:00:38;6.45;;;2.22;;
27293;SDS011;14785;52.556;13.430;2023-05-25T11:05:33;9.02;;;2.60;;
27293;SDS011;14785;52.556;13.430;2023-05-25T11:08:00;6.95;;;2.78;;
27293;SDS011;14785;52.556;13.430;2023-05-25T11:19:01;9.60;;;3.05;;
27293;SDS011;14785;52.556;13.430;2023-05-25T11:23:57;10.73;;;2.42;;
27293;SDS011;14785;52.556;13.430;2023-05-25T11:26:30;5.68;;;2.30;;
27293;SDS011;14785;52.556;13.430;2023-05-25T11:28:57;8.57;;;2.30;;
27293;SDS011;14785;52.556;13.430;2023-05-25T11:33:58;7.45;;;2.47;;
27293;SDS011;14785;52.556;13.430;2023-05-25T11:36:31;4.50;;;1.98;;
27293;SDS011;14785;52.556;13.430;2023-05-25T11:39:05;4.18;;;2.03;;
27293;SDS011;14785;52.556;13.430;2023-05-25T11:41:31;5.63;;;2.25;;
27293;SDS011;14785;52.556;13.430;2023-05-25T11:44:01;4.70;;;2.20;;
27293;SDS011;14785;52.556;13.430;2023-05-25T11:46:28;8.80;;;2.90;;
27293;SDS011;14785;52.556;13.430;2023-05-25T11:48:56;9.02;;;2.92;;
27293;SDS011;14785;52.556;13.430;2023-05-25T11:51:23;5.53;;;2.08;;
27293;SDS011;14785;52.556;13.430;2023-05-25T11:53:49;6.25;;;2.65;;
27293;SDS011;14785;52.556;13.430;2023-05-25T11:56:16;5.68;;;2.65;;
27293;SDS011;14785;52.556;13.430;2023-05-25T11:58:42;7.28;;;2.30;;
27293;SDS011;14785;52.556;13.430;2023-05-25T12:01:16;6.30;;;2.95;;
27293;SDS011;14785;52.556;13.430;2023-05-25T12:03:44;9.65;;;2.85;;
27293;SDS011;14785;52.556;13.430;2023-05-25T12:09:12;16.80;;;3.78;;
27293;SDS011;14785;52.556;13.430;2023-05-25T12:11:45;3.72;;;2.15;;
27293;SDS011;14785;52.556;13.430;2023-05-25T12:14:11;10.35;;;3.78;;
27293;SDS011;14785;52.556;13.430;2023-05-25T12:16:36;11.63;;;2.70;;
27293;SDS011;14785;52.556;13.430;2023-05-25T12:19:05;6.55;;;3.17;;
27293;SDS011;14785;52.556;13.430;2023-05-25T12:21:31;10.25;;;3.75;;
27293;SDS011;14785;52.556;13.430;2023-05-25T12:26:24;8.30;;;3.58;;
27293;SDS011;14785;52.556;13.430;2023-05-25T12:29:03;6.88;;;3.17;;
27293;SDS011;14785;52.556;13.430;2023-05-25T12:31:30;7.95;;;2.97;;
27293;SDS011;14785;52.556;13.430;2023-05-25T12:36:37;7.63;;;3.08;;
27293;SDS011;14785;52.556;13.430;2023-05-25T12:39:15;6.43;;;3.00;;
27293;SDS011;14785;52.556;13.430;2023-05-25T12:44:17;8.57;;;3.17;;
27293;SDS011;14785;52.556;13.430;2023-05-25T12:46:50;11.70;;;3.17;;
27293;SDS011;14785;52.556;13.430;2023-05-25T12:51:48;6.45;;;2.78;;
27293;SDS011;14785;52.556;13.430;2023-05-25T12:54:13;9.53;;;3.13;;
27293;SDS011;14785;52.556;13.430;2023-05-25T12:56:57;5.03;;;2.77;;
27293;SDS011;14785;52.556;13.430;2023-05-25T12:59:23;8.05;;;3.42;;
27293;SDS011;14785;52.556;13.430;2023-05-25T13:01:48;8.50;;;3.07;;
27293;SDS011;14785;52.556;13.430;2023-05-25T13:04:14;6.65;;;2.42;;
27293;SDS011;14785;52.556;13.430;2023-05-25T13:06:40;7.87;;;2.77;;
27293;SDS011;14785;52.556;13.430;2023-05-25T13:09:05;4.73;;;2.20;;
27293;SDS011;14785;52.556;13.430;2023-05-25T13:11:30;7.47;;;2.60;;
27293;SDS011;14785;52.556;13.430;2023-05-25T13:13:56;3.97;;;2.53;;
27293;SDS011;14785;52.556;13.430;2023-05-25T13:16:21;5.37;;;2.53;;
27293;SDS011;14785;52.556;13.430;2023-05-25T13:18:47;5.78;;;2.30;;
27293;SDS011;14785;52.556;13.430;2023-05-25T13:21:12;11.30;;;3.23;;
27293;SDS011;14785;52.556;13.430;2023-05-25T13:23:38;8.33;;;2.70;;
27293;SDS011;14785;52.556;13.430;2023-05-25T13:26:03;6.77;;;2.13;;
27293;SDS011;14785;52.556;13.430;2023-05-25T13:28:29;8.77;;;3.13;;
27293;SDS011;14785;52.556;13.430;2023-05-25T13:30:54;5.47;;;2.10;;
27293;SDS011;14785;52.556;13.430;2023-05-25T13:33:20;4.87;;;2.20;;
27293;SDS011;14785;52.556;13.430;2023-05-25T13:35:45;5.17;;;2.20;;
27293;SDS011;14785;52.556;13.430;2023-05-25T13:38:22;4.55;;;1.60;;
27293;SDS011;14785;52.556;13.430;2023-05-25T13:40:48;6.50;;;2.20;;
27293;SDS011;14785;52.556;13.430;2023-05-25T13:43:13;14.10;;;2.90;;
27293;SDS011;14785;52.556;13.430;2023-05-25T13:45:39;8.10;;;3.00;;
27293;SDS011;14785;52.556;13.430;2023-05-25T13:48:04;11.50;;;2.20;;
27293;SDS011;14785;52.556;13.430;2023-05-25T13:50:29;5.33;;;2.10;;
27293;SDS011;14785;52.556;13.430;2023-05-25T13:52:56;7.63;;;2.50;;
27293;SDS011;14785;52.556;13.430;2023-05-25T13:55:22;4.47;;;1.93;;
27293;SDS011;14785;52.556;13.430;2023-05-25T13:57:47;4.50;;;2.13;;
27293;SDS011;14785;52.556;13.430;2023-05-25T14:00:13;12.73;;;4.27;;
27293;SDS011;14785;52.556;13.430;2023-05-25T14:02:39;7.20;;;2.33;;
27293;SDS011;14785;52.556;13.430;2023-05-25T14:05:04;6.30;;;2.70;;
27293;SDS011;14785;52.556;13.430;2023-05-25T14:07:30;9.95;;;2.83;;
27293;SDS011;14785;52.556;13.430;2023-05-25T14:09:56;9.40;;;3.67;;
27293;SDS011;14785;52.556;13.430;2023-05-25T14:12:22;9.88;;;2.55;;
27293;SDS011;14785;52.556;13.430;2023-05-25T14:14:48;6.93;;;3.03;;
27293;SDS011;14785;52.556;13.430;2023-05-25T14:17:13;6.23;;;2.87;;
27293;SDS011;14785;52.556;13.430;2023-05-25T14:19:39;8.20;;;3.03;;
27293;SDS011;14785;52.556;13.430;2023-05-25T14:22:04;6.17;;;2.40;;
27293;SDS011;14785;52.556;13.430;2023-05-25T14:24:30;13.45;;;2.58;;
27293;SDS011;14785;52.556;13.430;2023-05-25T14:26:56;5.13;;;2.30;;
27293;SDS011;14785;52.556;13.430;2023-05-25T14:29:21;5.77;;;3.67;;
27293;SDS011;14785;52.556;13.430;2023-05-25T14:31:47;4.90;;;2.33;;
27293;SDS011;14785;52.556;13.430;2023-05-25T14:34:12;5.40;;;2.80;;
27293;SDS011;14785;52.556;13.430;2023-05-25T14:36:38;5.37;;;2.23;;
27293;SDS011;14785;52.556;13.430;2023-05-25T14:39:03;4.07;;;2.43;;
27293;SDS011;14785;52.556;13.430;2023-05-25T14:41:29;5.45;;;3.17;;
27293;SDS011;14785;52.556;13.430;2023-05-25T14:43:54;8.83;;;3.50;;
27293;SDS011;14785;52.556;13.430;2023-05-25T14:46:19;6.27;;;2.90;;
27293;SDS011;14785;52.556;13.430;2023-05-25T14:48:45;5.70;;;2.33;;
27293;SDS011;14785;52.556;13.430;2023-05-25T14:51:10;6.23;;;2.53;;
27293;SDS011;14785;52.556;13.430;2023-05-25T14:53:36;7.17;;;2.83;;
27293;SDS011;14785;52.556;13.430;2023-05-25T14:56:01;7.00;;;2.73;;
27293;SDS011;14785;52.556;13.430;2023-05-25T14:58:27;5.82;;;2.40;;
27293;SDS011;14785;52.556;13.430;2023-05-25T15:00:53;10.63;;;3.75;;
27293;SDS011;14785;52.556;13.430;2023-05-25T15:03:19;8.60;;;3.08;;
27293;SDS011;14785;52.556;13.430;2023-05-25T15:05:45;8.27;;;3.40;;
27293;SDS011;14785;52.556;13.430;2023-05-25T15:08:10;7.40;;;2.50;;
27293;SDS011;14785;52.556;13.430;2023-05-25T15:10:36;8.40;;;2.83;;
27293;SDS011;14785;52.556;13.430;2023-05-25T15:13:01;7.47;;;3.27;;
27293;SDS011;14785;52.556;13.430;2023-05-25T15:15:27;6.60;;;2.60;;
27293;SDS011;14785;52.556;13.430;2023-05-25T15:17:52;3.72;;;2.30;;
27293;SDS011;14785;52.556;13.430;2023-05-25T15:20:18;8.83;;;3.10;;